sensor_id;sensor_type;location;lat;lon;timestamp;P1;durP1;ratioP1;P2;durP2;ratioP2
31990;SDS011;18508;49.386;8.370;2024-02-15T00:00:12;7.97;;;4.97;;
31990;SDS011;18508;49.386;8.370;2024-02-15T00:02:44;7.43;;;5.50;;
31990;SDS011;18508;49.386;8.370;2024-02-15T00:05:14;10.10;;;5.65;;
31990;SDS011;18508;49.386;8.370;2024-02-15T00:07:49;8.52;;;5.13;;
31990;SDS011;18508;49.386;8.370;2024-02-15T00:10:18;9.13;;;5.10;;
31990;SDS011;18508;49.386;8.370;2024-02-15T00:12:50;10.20;;;5.40;;
31990;SDS011;18508;49.386;8.370;2024-02-15T00:15:19;9.40;;;4.80;;
31990;SDS011;18508;49.386;8.370;2024-02-15T00:17:48;8.23;;;4.38;;
31990;SDS011;18508;49.386;8.370;2024-02-15T00:20:26;8.02;;;4.50;;
31990;SDS011;18508;49.386;8.370;2024-02-15T00:25:26;9.90;;;4.72;;
31990;SDS011;18508;49.386;8.370;2024-02-15T00:27:58;9.55;;;5.53;;
31990;SDS011;18508;49.386;8.370;2024-02-15T00:30:28;12.38;;;6.03;;
31990;SDS011;18508;49.386;8.370;2024-02-15T00:32:58;9.75;;;5.55;;
31990;SDS011;18508;49.386;8.370;2024-02-15T00:35:33;12.80;;;5.80;;
31990;SDS011;18508;49.386;8.370;2024-02-15T00:38:02;11.32;;;6.60;;
31990;SDS011;18508;49.386;8.370;2024-02-15T00:40:34;11.38;;;6.07;;
31990;SDS011;18508;49.386;8.370;2024-02-15T00:43:03;13.88;;;5.68;;
31990;SDS011;18508;49.386;8.370;2024-02-15T00:45:33;9.70;;;6.32;;
31990;SDS011;18508;49.386;8.370;2024-02-15T00:48:03;9.60;;;5.40;;
31990;SDS011;18508;49.386;8.370;2024-02-15T00:50:35;10.57;;;6.03;;
31990;SDS011;18508;49.386;8.370;2024-02-15T00:53:05;8.70;;;5.03;;
31990;SDS011;18508;49.386;8.370;2024-02-15T00:55:34;10.73;;;5.75;;
31990;SDS011;18508;49.386;8.370;2024-02-15T00:58:04;11.52;;;5.60;;
31990;SDS011;18508;49.386;8.370;2024-02-15T01:00:38;9.88;;;5.43;;
31990;SDS011;18508;49.386;8.370;2024-02-15T01:03:10;10.52;;;5.00;;
31990;SDS011;18508;49.386;8.370;2024-02-15T01:05:40;8.20;;;5.35;;
31990;SDS011;18508;49.386;8.370;2024-02-15T01:08:11;10.23;;;5.80;;
31990;SDS011;18508;49.386;8.370;2024-02-15T01:10:40;10.30;;;6.43;;
31990;SDS011;18508;49.386;8.370;2024-02-15T01:13:09;14.10;;;7.63;;
31990;SDS011;18508;49.386;8.370;2024-02-15T01:15:38;12.85;;;6.45;;
31990;SDS011;18508;49.386;8.370;2024-02-15T01:18:07;11.80;;;6.85;;
31990;SDS011;18508;49.386;8.370;2024-02-15T01:20:39;10.73;;;5.95;;
31990;SDS011;18508;49.386;8.370;2024-02-15T01:23:15;8.73;;;4.95;;
31990;SDS011;18508;49.386;8.370;2024-02-15T01:25:50;11.60;;;6.57;;
31990;SDS011;18508;49.386;8.370;2024-02-15T01:28:22;9.65;;;6.07;;
31990;SDS011;18508;49.386;8.370;2024-02-15T01:30:51;8.18;;;5.38;;
31990;SDS011;18508;49.386;8.370;2024-02-15T01:33:25;11.07;;;6.80;;
31990;SDS011;18508;49.386;8.370;2024-02-15T01:35:56;10.45;;;5.25;;
31990;SDS011;18508;49.386;8.370;2024-02-15T01:38:26;10.15;;;4.68;;
31990;SDS011;18508;49.386;8.370;2024-02-15T01:40:56;8.15;;;4.40;;
31990;SDS011;18508;49.386;8.370;2024-02-15T01:43:25;11.15;;;4.82;;
31990;SDS011;18508;49.386;8.370;2024-02-15T01:45:55;12.15;;;5.10;;
31990;SDS011;18508;49.386;8.370;2024-02-15T01:48:31;8.70;;;4.57;;
31990;SDS011;18508;49.386;8.370;2024-02-15T01:51:03;8.65;;;5.07;;
31990;SDS011;18508;49.386;8.370;2024-02-15T01:53:33;7.50;;;4.38;;
31990;SDS011;18508;49.386;8.370;2024-02-15T01:56:03;10.15;;;4.70;;
31990;SDS011;18508;49.386;8.370;2024-02-15T01:58:32;8.70;;;4.90;;
31990;SDS011;18508;49.386;8.370;2024-02-15T02:01:02;8.10;;;4.80;;
31990;SDS011;18508;49.386;8.370;2024-02-15T02:03:32;7.38;;;4.85;;
31990;SDS011;18508;49.386;8.370;2024-02-15T02:06:09;8.13;;;4.93;;
31990;SDS011;18508;49.386;8.370;2024-02-15T02:08:38;7.82;;;4.45;;
31990;SDS011;18508;49.386;8.370;2024-02-15T02:11:07;8.52;;;4.82;;
31990;SDS011;18508;49.386;8.370;2024-02-15T02:13:38;7.95;;;4.78;;
31990;SDS011;18508;49.386;8.370;2024-02-15T02:18:55;8.55;;;4.95;;
31990;SDS011;18508;49.386;8.370;2024-02-15T02:21:25;14.05;;;5.45;;
31990;SDS011;18508;49.386;8.370;2024-02-15T02:23:55;6.68;;;4.55;;
31990;SDS011;18508;49.386;8.370;2024-02-15T02:26:26;6.05;;;3.90;;
31990;SDS011;18508;49.386;8.370;2024-02-15T02:28:54;7.25;;;2.63;;
31990;SDS011;18508;49.386;8.370;2024-02-15T02:31:22;6.00;;;3.38;;
31990;SDS011;18508;49.386;8.370;2024-02-15T02:33:51;7.10;;;2.90;;
31990;SDS011;18508;49.386;8.370;2024-02-15T02:36:21;6.63;;;2.88;;
31990;SDS011;18508;49.386;8.370;2024-02-15T02:38:53;8.57;;;2.97;;
31990;SDS011;18508;49.386;8.370;2024-02-15T02:41:22;8.10;;;3.05;;
31990;SDS011;18508;49.386;8.370;2024-02-15T02:43:51;6.35;;;2.90;;
31990;SDS011;18508;49.386;8.370;2024-02-15T02:46:20;9.23;;;3.40;;
31990;SDS011;18508;49.386;8.370;2024-02-15T02:48:49;6.18;;;2.67;;
31990;SDS011;18508;49.386;8.370;2024-02-15T02:51:20;9.85;;;2.80;;
31990;SDS011;18508;49.386;8.370;2024-02-15T02:53:49;7.75;;;2.53;;
31990;SDS011;18508;49.386;8.370;2024-02-15T02:56:24;5.40;;;2.92;;
31990;SDS011;18508;49.386;8.370;2024-02-15T02:58:55;6.00;;;2.63;;
31990;SDS011;18508;49.386;8.370;2024-02-15T03:01:24;9.32;;;2.53;;
31990;SDS011;18508;49.386;8.370;2024-02-15T03:03:54;6.38;;;2.72;;
31990;SDS011;18508;49.386;8.370;2024-02-15T03:06:26;8.02;;;2.70;;
31990;SDS011;18508;49.386;8.370;2024-02-15T03:08:57;5.07;;;2.40;;
31990;SDS011;18508;49.386;8.370;2024-02-15T03:11:29;4.80;;;2.42;;
31990;SDS011;18508;49.386;8.370;2024-02-15T03:16:32;5.53;;;2.50;;
31990;SDS011;18508;49.386;8.370;2024-02-15T03:19:04;6.57;;;3.17;;
31990;SDS011;18508;49.386;8.370;2024-02-15T03:21:38;7.90;;;3.22;;
31990;SDS011;18508;49.386;8.370;2024-02-15T03:24:13;5.70;;;3.20;;
31990;SDS011;18508;49.386;8.370;2024-02-15T03:26:42;6.30;;;3.22;;
31990;SDS011;18508;49.386;8.370;2024-02-15T03:29:18;5.20;;;3.10;;
31990;SDS011;18508;49.386;8.370;2024-02-15T03:31:48;6.00;;;2.75;;
31990;SDS011;18508;49.386;8.370;2024-02-15T03:34:19;4.97;;;2.30;;
31990;SDS011;18508;49.386;8.370;2024-02-15T03:36:51;5.88;;;2.72;;
31990;SDS011;18508;49.386;8.370;2024-02-15T03:39:21;8.70;;;3.58;;
31990;SDS011;18508;49.386;8.370;2024-02-15T03:41:52;6.03;;;2.55;;
31990;SDS011;18508;49.386;8.370;2024-02-15T03:44:24;4.88;;;3.00;;
31990;SDS011;18508;49.386;8.370;2024-02-15T03:46:53;5.60;;;2.78;;
31990;SDS011;18508;49.386;8.370;2024-02-15T03:49:25;6.15;;;3.00;;
31990;SDS011;18508;49.386;8.370;2024-02-15T03:51:57;6.78;;;3.13;;
31990;SDS011;18508;49.386;8.370;2024-02-15T03:54:27;8.07;;;2.88;;
31990;SDS011;18508;49.386;8.370;2024-02-15T03:56:57;8.18;;;3.15;;
31990;SDS011;18508;49.386;8.370;2024-02-15T03:59:28;7.93;;;2.70;;
31990;SDS011;18508;49.386;8.370;2024-02-15T04:02:01;6.05;;;3.00;;
31990;SDS011;18508;49.386;8.370;2024-02-15T04:04:35;6.45;;;3.15;;
31990;SDS011;18508;49.386;8.370;2024-02-15T04:07:03;8.63;;;4.22;;
31990;SDS011;18508;49.386;8.370;2024-02-15T04:09:33;7.00;;;3.40;;
31990;SDS011;18508;49.386;8.370;2024-02-15T04:12:03;8.00;;;2.83;;
31990;SDS011;18508;49.386;8.370;2024-02-15T04:14:35;4.68;;;3.03;;
31990;SDS011;18508;49.386;8.370;2024-02-15T04:17:05;5.65;;;3.13;;
31990;SDS011;18508;49.386;8.370;2024-02-15T04:19:34;5.55;;;3.03;;
31990;SDS011;18508;49.386;8.370;2024-02-15T04:22:04;6.25;;;2.95;;
31990;SDS011;18508;49.386;8.370;2024-02-15T04:24:34;7.45;;;3.10;;
31990;SDS011;18508;49.386;8.370;2024-02-15T04:27:07;6.10;;;3.08;;
31990;SDS011;18508;49.386;8.370;2024-02-15T04:29:40;5.63;;;3.03;;
31990;SDS011;18508;49.386;8.370;2024-02-15T04:32:11;7.03;;;3.03;;
31990;SDS011;18508;49.386;8.370;2024-02-15T04:34:39;6.72;;;2.85;;
31990;SDS011;18508;49.386;8.370;2024-02-15T04:37:08;5.50;;;2.90;;
31990;SDS011;18508;49.386;8.370;2024-02-15T04:39:37;6.95;;;3.40;;
31990;SDS011;18508;49.386;8.370;2024-02-15T04:42:12;5.18;;;3.38;;
31990;SDS011;18508;49.386;8.370;2024-02-15T04:44:43;8.60;;;3.78;;
31990;SDS011;18508;49.386;8.370;2024-02-15T04:47:13;7.20;;;3.92;;
31990;SDS011;18508;49.386;8.370;2024-02-15T04:49:44;7.05;;;3.33;;
31990;SDS011;18508;49.386;8.370;2024-02-15T04:52:13;6.85;;;3.30;;
31990;SDS011;18508;49.386;8.370;2024-02-15T04:54:44;6.75;;;3.90;;
31990;SDS011;18508;49.386;8.370;2024-02-15T04:57:16;9.57;;;3.58;;
31990;SDS011;18508;49.386;8.370;2024-02-15T04:59:46;7.03;;;3.83;;
31990;SDS011;18508;49.386;8.370;2024-02-15T05:02:17;9.40;;;3.63;;
31990;SDS011;18508;49.386;8.370;2024-02-15T05:04:47;7.40;;;4.05;;
31990;SDS011;18508;49.386;8.370;2024-02-15T05:07:22;8.98;;;3.28;;
31990;SDS011;18508;49.386;8.370;2024-02-15T05:09:55;8.43;;;3.92;;
31990;SDS011;18508;49.386;8.370;2024-02-15T05:12:24;9.07;;;4.55;;
31990;SDS011;18508;49.386;8.370;2024-02-15T05:14:58;7.37;;;3.60;;
31990;SDS011;18508;49.386;8.370;2024-02-15T05:17:28;8.47;;;4.27;;
31990;SDS011;18508;49.386;8.370;2024-02-15T05:19:58;8.15;;;4.32;;
31990;SDS011;18508;49.386;8.370;2024-02-15T05:22:37;8.25;;;4.50;;
31990;SDS011;18508;49.386;8.370;2024-02-15T05:25:15;7.47;;;3.97;;
31990;SDS011;18508;49.386;8.370;2024-02-15T05:27:52;5.55;;;3.45;;
31990;SDS011;18508;49.386;8.370;2024-02-15T05:30:25;7.53;;;3.67;;
31990;SDS011;18508;49.386;8.370;2024-02-15T05:35:26;9.93;;;4.68;;
31990;SDS011;18508;49.386;8.370;2024-02-15T05:37:59;7.72;;;4.13;;
31990;SDS011;18508;49.386;8.370;2024-02-15T05:40:30;6.75;;;4.03;;
31990;SDS011;18508;49.386;8.370;2024-02-15T05:43:02;6.72;;;3.53;;
31990;SDS011;18508;49.386;8.370;2024-02-15T05:45:36;8.35;;;4.13;;
31990;SDS011;18508;49.386;8.370;2024-02-15T05:48:07;12.48;;;4.78;;
31990;SDS011;18508;49.386;8.370;2024-02-15T05:50:39;10.20;;;4.57;;
31990;SDS011;18508;49.386;8.370;2024-02-15T05:53:10;9.35;;;4.25;;
31990;SDS011;18508;49.386;8.370;2024-02-15T05:55:38;6.47;;;3.50;;
31990;SDS011;18508;49.386;8.370;2024-02-15T05:58:11;9.63;;;3.90;;
31990;SDS011;18508;49.386;8.370;2024-02-15T06:00:42;9.88;;;4.18;;
31990;SDS011;18508;49.386;8.370;2024-02-15T06:03:17;6.18;;;3.70;;
31990;SDS011;18508;49.386;8.370;2024-02-15T06:05:46;7.65;;;3.58;;
31990;SDS011;18508;49.386;8.370;2024-02-15T06:08:15;8.18;;;3.10;;
31990;SDS011;18508;49.386;8.370;2024-02-15T06:10:45;8.18;;;3.38;;
31990;SDS011;18508;49.386;8.370;2024-02-15T06:13:15;6.63;;;3.35;;
31990;SDS011;18508;49.386;8.370;2024-02-15T06:15:46;7.90;;;3.42;;
31990;SDS011;18508;49.386;8.370;2024-02-15T06:18:19;10.02;;;4.03;;
31990;SDS011;18508;49.386;8.370;2024-02-15T06:20:51;8.27;;;3.95;;
31990;SDS011;18508;49.386;8.370;2024-02-15T06:23:25;9.55;;;3.67;;
31990;SDS011;18508;49.386;8.370;2024-02-15T06:25:56;9.45;;;3.65;;
31990;SDS011;18508;49.386;8.370;2024-02-15T06:28:29;6.18;;;3.80;;
31990;SDS011;18508;49.386;8.370;2024-02-15T06:31:17;5.22;;;3.05;;
31990;SDS011;18508;49.386;8.370;2024-02-15T06:34:04;7.63;;;3.83;;
31990;SDS011;18508;49.386;8.370;2024-02-15T06:37:02;8.82;;;3.85;;
31990;SDS011;18508;49.386;8.370;2024-02-15T06:39:49;7.03;;;4.40;;
31990;SDS011;18508;49.386;8.370;2024-02-15T06:42:18;7.95;;;3.90;;
31990;SDS011;18508;49.386;8.370;2024-02-15T06:44:48;10.82;;;3.85;;
31990;SDS011;18508;49.386;8.370;2024-02-15T06:47:19;8.50;;;3.97;;
31990;SDS011;18508;49.386;8.370;2024-02-15T06:49:49;7.20;;;3.63;;
31990;SDS011;18508;49.386;8.370;2024-02-15T06:52:20;9.15;;;3.92;;
31990;SDS011;18508;49.386;8.370;2024-02-15T06:54:53;8.73;;;3.78;;
31990;SDS011;18508;49.386;8.370;2024-02-15T06:57:22;9.63;;;4.32;;
31990;SDS011;18508;49.386;8.370;2024-02-15T06:59:52;11.48;;;4.00;;
31990;SDS011;18508;49.386;8.370;2024-02-15T07:02:22;8.32;;;3.58;;
31990;SDS011;18508;49.386;8.370;2024-02-15T07:04:51;10.25;;;4.00;;
31990;SDS011;18508;49.386;8.370;2024-02-15T07:07:20;8.25;;;4.28;;
31990;SDS011;18508;49.386;8.370;2024-02-15T07:09:51;6.43;;;3.53;;
31990;SDS011;18508;49.386;8.370;2024-02-15T07:12:20;10.95;;;4.50;;
31990;SDS011;18508;49.386;8.370;2024-02-15T07:14:49;8.90;;;4.00;;
31990;SDS011;18508;49.386;8.370;2024-02-15T07:17:19;13.50;;;3.88;;
31990;SDS011;18508;49.386;8.370;2024-02-15T07:19:50;9.35;;;4.10;;
31990;SDS011;18508;49.386;8.370;2024-02-15T07:22:24;7.32;;;4.40;;
31990;SDS011;18508;49.386;8.370;2024-02-15T07:24:52;8.30;;;3.95;;
31990;SDS011;18508;49.386;8.370;2024-02-15T07:27:26;8.68;;;4.25;;
31990;SDS011;18508;49.386;8.370;2024-02-15T07:29:56;9.30;;;3.78;;
31990;SDS011;18508;49.386;8.370;2024-02-15T07:32:26;10.68;;;4.22;;
31990;SDS011;18508;49.386;8.370;2024-02-15T07:34:58;7.57;;;4.35;;
31990;SDS011;18508;49.386;8.370;2024-02-15T07:37:27;8.30;;;4.60;;
31990;SDS011;18508;49.386;8.370;2024-02-15T07:39:56;10.18;;;4.60;;
31990;SDS011;18508;49.386;8.370;2024-02-15T07:42:30;9.25;;;4.45;;
31990;SDS011;18508;49.386;8.370;2024-02-15T07:44:59;8.77;;;4.43;;
31990;SDS011;18508;49.386;8.370;2024-02-15T07:47:33;9.52;;;4.78;;
31990;SDS011;18508;49.386;8.370;2024-02-15T07:50:05;9.80;;;4.05;;
31990;SDS011;18508;49.386;8.370;2024-02-15T07:52:37;9.45;;;4.63;;
31990;SDS011;18508;49.386;8.370;2024-02-15T07:55:07;12.05;;;5.00;;
31990;SDS011;18508;49.386;8.370;2024-02-15T07:57:38;7.68;;;3.92;;
31990;SDS011;18508;49.386;8.370;2024-02-15T08:00:09;6.93;;;4.18;;
31990;SDS011;18508;49.386;8.370;2024-02-15T08:02:40;8.63;;;4.80;;
31990;SDS011;18508;49.386;8.370;2024-02-15T08:05:13;9.98;;;5.13;;
31990;SDS011;18508;49.386;8.370;2024-02-15T08:07:43;14.35;;;5.57;;
31990;SDS011;18508;49.386;8.370;2024-02-15T08:10:17;9.75;;;5.30;;
31990;SDS011;18508;49.386;8.370;2024-02-15T08:12:49;11.98;;;5.07;;
31990;SDS011;18508;49.386;8.370;2024-02-15T08:15:20;10.75;;;5.63;;
31990;SDS011;18508;49.386;8.370;2024-02-15T08:17:51;9.63;;;5.32;;
31990;SDS011;18508;49.386;8.370;2024-02-15T08:20:25;11.82;;;5.43;;
31990;SDS011;18508;49.386;8.370;2024-02-15T08:22:59;12.20;;;5.70;;
31990;SDS011;18508;49.386;8.370;2024-02-15T08:25:30;12.07;;;6.35;;
31990;SDS011;18508;49.386;8.370;2024-02-15T08:30:34;12.48;;;5.97;;
31990;SDS011;18508;49.386;8.370;2024-02-15T08:33:04;10.27;;;6.10;;
31990;SDS011;18508;49.386;8.370;2024-02-15T08:35:36;12.93;;;6.72;;
31990;SDS011;18508;49.386;8.370;2024-02-15T08:38:09;7.80;;;5.07;;
31990;SDS011;18508;49.386;8.370;2024-02-15T08:40:46;18.08;;;6.20;;
31990;SDS011;18508;49.386;8.370;2024-02-15T08:43:17;12.30;;;5.85;;
31990;SDS011;18508;49.386;8.370;2024-02-15T08:45:47;8.70;;;5.53;;
31990;SDS011;18508;49.386;8.370;2024-02-15T08:48:19;9.43;;;5.45;;
31990;SDS011;18508;49.386;8.370;2024-02-15T08:50:51;10.20;;;5.50;;
31990;SDS011;18508;49.386;8.370;2024-02-15T08:53:25;11.43;;;5.43;;
31990;SDS011;18508;49.386;8.370;2024-02-15T08:55:55;10.02;;;5.30;;
31990;SDS011;18508;49.386;8.370;2024-02-15T08:58:24;8.32;;;4.97;;
31990;SDS011;18508;49.386;8.370;2024-02-15T09:00:53;7.63;;;4.50;;
31990;SDS011;18508;49.386;8.370;2024-02-15T09:03:26;12.35;;;4.43;;
31990;SDS011;18508;49.386;8.370;2024-02-15T09:05:56;13.18;;;4.07;;
31990;SDS011;18508;49.386;8.370;2024-02-15T09:08:30;5.40;;;3.47;;
31990;SDS011;18508;49.386;8.370;2024-02-15T09:11:02;6.82;;;3.63;;
31990;SDS011;18508;49.386;8.370;2024-02-15T09:13:34;10.13;;;3.72;;
31990;SDS011;18508;49.386;8.370;2024-02-15T09:16:05;9.70;;;3.83;;
31990;SDS011;18508;49.386;8.370;2024-02-15T09:18:35;4.95;;;3.10;;
31990;SDS011;18508;49.386;8.370;2024-02-15T09:21:14;10.10;;;3.92;;
31990;SDS011;18508;49.386;8.370;2024-02-15T09:23:46;6.57;;;3.17;;
31990;SDS011;18508;49.386;8.370;2024-02-15T09:26:17;6.78;;;2.90;;
31990;SDS011;18508;49.386;8.370;2024-02-15T09:28:47;6.38;;;3.22;;
31990;SDS011;18508;49.386;8.370;2024-02-15T09:31:20;7.57;;;3.40;;
31990;SDS011;18508;49.386;8.370;2024-02-15T09:33:52;5.05;;;2.72;;
31990;SDS011;18508;49.386;8.370;2024-02-15T09:36:25;8.93;;;2.75;;
31990;SDS011;18508;49.386;8.370;2024-02-15T09:38:55;8.25;;;3.58;;
31990;SDS011;18508;49.386;8.370;2024-02-15T09:41:28;4.47;;;2.72;;
31990;SDS011;18508;49.386;8.370;2024-02-15T09:46:34;7.55;;;2.85;;
31990;SDS011;18508;49.386;8.370;2024-02-15T09:49:05;7.30;;;2.55;;
31990;SDS011;18508;49.386;8.370;2024-02-15T09:51:36;7.82;;;2.85;;
31990;SDS011;18508;49.386;8.370;2024-02-15T09:54:13;6.85;;;2.58;;
31990;SDS011;18508;49.386;8.370;2024-02-15T09:56:50;4.85;;;2.60;;
31990;SDS011;18508;49.386;8.370;2024-02-15T09:59:21;7.28;;;2.47;;
31990;SDS011;18508;49.386;8.370;2024-02-15T10:01:50;6.72;;;3.05;;
31990;SDS011;18508;49.386;8.370;2024-02-15T10:04:26;9.98;;;4.95;;
31990;SDS011;18508;49.386;8.370;2024-02-15T10:06:57;7.20;;;2.70;;
31990;SDS011;18508;49.386;8.370;2024-02-15T10:09:27;7.55;;;2.95;;
31990;SDS011;18508;49.386;8.370;2024-02-15T10:11:57;6.85;;;3.10;;
31990;SDS011;18508;49.386;8.370;2024-02-15T10:14:27;5.55;;;2.40;;
31990;SDS011;18508;49.386;8.370;2024-02-15T10:16:57;8.80;;;2.42;;
31990;SDS011;18508;49.386;8.370;2024-02-15T10:19:36;4.35;;;2.33;;
31990;SDS011;18508;49.386;8.370;2024-02-15T10:22:09;4.32;;;2.20;;
31990;SDS011;18508;49.386;8.370;2024-02-15T10:24:39;5.03;;;2.25;;
31990;SDS011;18508;49.386;8.370;2024-02-15T10:27:11;4.07;;;2.38;;
31990;SDS011;18508;49.386;8.370;2024-02-15T10:29:43;9.48;;;3.38;;
31990;SDS011;18508;49.386;8.370;2024-02-15T10:32:12;4.88;;;2.45;;
31990;SDS011;18508;49.386;8.370;2024-02-15T10:34:44;6.22;;;2.55;;
31990;SDS011;18508;49.386;8.370;2024-02-15T10:37:18;4.95;;;2.55;;
31990;SDS011;18508;49.386;8.370;2024-02-15T10:39:46;7.38;;;2.28;;
31990;SDS011;18508;49.386;8.370;2024-02-15T10:42:34;4.32;;;2.17;;
31990;SDS011;18508;49.386;8.370;2024-02-15T10:45:05;5.30;;;2.25;;
31990;SDS011;18508;49.386;8.370;2024-02-15T10:47:41;5.60;;;2.28;;
31990;SDS011;18508;49.386;8.370;2024-02-15T10:50:12;6.25;;;2.08;;
31990;SDS011;18508;49.386;8.370;2024-02-15T10:52:51;5.57;;;2.33;;
31990;SDS011;18508;49.386;8.370;2024-02-15T10:55:29;3.65;;;2.08;;
31990;SDS011;18508;49.386;8.370;2024-02-15T10:58:08;7.50;;;2.17;;
31990;SDS011;18508;49.386;8.370;2024-02-15T11:03:14;4.05;;;1.88;;
31990;SDS011;18508;49.386;8.370;2024-02-15T11:05:52;8.25;;;2.28;;
31990;SDS011;18508;49.386;8.370;2024-02-15T11:08:23;4.97;;;1.70;;
31990;SDS011;18508;49.386;8.370;2024-02-15T11:10:52;4.45;;;1.70;;
31990;SDS011;18508;49.386;8.370;2024-02-15T11:13:25;6.95;;;2.30;;
31990;SDS011;18508;49.386;8.370;2024-02-15T11:15:56;6.43;;;1.98;;
31990;SDS011;18508;49.386;8.370;2024-02-15T11:21:16;5.03;;;1.63;;
31990;SDS011;18508;49.386;8.370;2024-02-15T11:23:47;5.90;;;1.90;;
31990;SDS011;18508;49.386;8.370;2024-02-15T11:32:38;5.15;;;2.08;;
31990;SDS011;18508;49.386;8.370;2024-02-15T11:35:12;4.88;;;2.00;;
31990;SDS011;18508;49.386;8.370;2024-02-15T11:37:50;4.90;;;2.88;;
31990;SDS011;18508;49.386;8.370;2024-02-15T11:43:45;7.45;;;2.63;;
31990;SDS011;18508;49.386;8.370;2024-02-15T11:46:19;5.15;;;2.55;;
31990;SDS011;18508;49.386;8.370;2024-02-15T11:48:48;6.13;;;2.30;;
31990;SDS011;18508;49.386;8.370;2024-02-15T11:51:30;7.72;;;2.50;;
31990;SDS011;18508;49.386;8.370;2024-02-15T11:54:05;5.03;;;2.35;;
31990;SDS011;18508;49.386;8.370;2024-02-15T11:59:40;3.80;;;1.90;;
31990;SDS011;18508;49.386;8.370;2024-02-15T12:02:42;5.13;;;2.47;;
31990;SDS011;18508;49.386;8.370;2024-02-15T12:05:30;5.85;;;2.33;;
31990;SDS011;18508;49.386;8.370;2024-02-15T12:08:17;4.68;;;2.58;;
31990;SDS011;18508;49.386;8.370;2024-02-15T12:11:08;6.50;;;2.47;;
31990;SDS011;18508;49.386;8.370;2024-02-15T12:13:56;7.45;;;2.92;;
31990;SDS011;18508;49.386;8.370;2024-02-15T12:16:42;4.78;;;2.50;;
31990;SDS011;18508;49.386;8.370;2024-02-15T12:19:28;7.75;;;2.67;;
31990;SDS011;18508;49.386;8.370;2024-02-15T12:22:03;2.85;;;1.60;;
31990;SDS011;18508;49.386;8.370;2024-02-15T12:24:35;4.70;;;1.73;;
31990;SDS011;18508;49.386;8.370;2024-02-15T12:27:04;4.75;;;1.90;;
31990;SDS011;18508;49.386;8.370;2024-02-15T12:29:36;8.63;;;1.65;;
31990;SDS011;18508;49.386;8.370;2024-02-15T12:32:05;3.10;;;1.77;;
31990;SDS011;18508;49.386;8.370;2024-02-15T12:34:33;5.60;;;2.10;;
31990;SDS011;18508;49.386;8.370;2024-02-15T12:37:05;6.05;;;2.40;;
31990;SDS011;18508;49.386;8.370;2024-02-15T12:39:36;4.70;;;2.17;;
31990;SDS011;18508;49.386;8.370;2024-02-15T12:42:06;5.05;;;2.42;;
31990;SDS011;18508;49.386;8.370;2024-02-15T12:44:37;4.82;;;2.25;;
31990;SDS011;18508;49.386;8.370;2024-02-15T12:47:21;9.55;;;2.42;;
31990;SDS011;18508;49.386;8.370;2024-02-15T12:49:51;9.43;;;3.08;;
31990;SDS011;18508;49.386;8.370;2024-02-15T12:52:33;5.35;;;2.03;;
31990;SDS011;18508;49.386;8.370;2024-02-15T12:55:08;5.43;;;1.83;;
31990;SDS011;18508;49.386;8.370;2024-02-15T12:57:41;5.18;;;2.03;;
31990;SDS011;18508;49.386;8.370;2024-02-15T13:00:20;4.22;;;2.15;;
31990;SDS011;18508;49.386;8.370;2024-02-15T13:02:55;8.35;;;2.55;;
31990;SDS011;18508;49.386;8.370;2024-02-15T13:05:24;6.43;;;2.20;;
31990;SDS011;18508;49.386;8.370;2024-02-15T13:07:57;4.80;;;2.00;;
31990;SDS011;18508;49.386;8.370;2024-02-15T13:10:27;4.43;;;1.90;;
31990;SDS011;18508;49.386;8.370;2024-02-15T13:13:02;5.03;;;2.15;;
31990;SDS011;18508;49.386;8.370;2024-02-15T13:15:35;10.50;;;3.28;;
31990;SDS011;18508;49.386;8.370;2024-02-15T13:18:06;7.35;;;2.38;;
31990;SDS011;18508;49.386;8.370;2024-02-15T13:20:37;5.32;;;1.90;;
31990;SDS011;18508;49.386;8.370;2024-02-15T13:23:06;6.80;;;2.67;;
31990;SDS011;18508;49.386;8.370;2024-02-15T13:25:41;6.60;;;2.20;;
31990;SDS011;18508;49.386;8.370;2024-02-15T13:28:11;4.25;;;2.17;;
31990;SDS011;18508;49.386;8.370;2024-02-15T13:30:41;4.55;;;1.73;;
31990;SDS011;18508;49.386;8.370;2024-02-15T13:33:12;4.38;;;2.50;;
31990;SDS011;18508;49.386;8.370;2024-02-15T13:35:51;8.25;;;2.97;;
31990;SDS011;18508;49.386;8.370;2024-02-15T13:40:55;5.43;;;2.05;;
31990;SDS011;18508;49.386;8.370;2024-02-15T13:43:26;4.80;;;2.70;;
31990;SDS011;18508;49.386;8.370;2024-02-15T13:45:58;4.38;;;1.90;;
31990;SDS011;18508;49.386;8.370;2024-02-15T13:48:28;4.38;;;2.33;;
31990;SDS011;18508;49.386;8.370;2024-02-15T13:51:00;4.68;;;1.70;;
31990;SDS011;18508;49.386;8.370;2024-02-15T13:53:30;4.75;;;2.20;;
31990;SDS011;18508;49.386;8.370;2024-02-15T13:55:58;5.30;;;2.03;;
31990;SDS011;18508;49.386;8.370;2024-02-15T13:58:27;6.50;;;2.20;;
31990;SDS011;18508;49.386;8.370;2024-02-15T14:00:56;5.18;;;1.80;;
31990;SDS011;18508;49.386;8.370;2024-02-15T14:03:29;3.53;;;1.60;;
31990;SDS011;18508;49.386;8.370;2024-02-15T14:06:00;5.10;;;2.00;;
31990;SDS011;18508;49.386;8.370;2024-02-15T14:08:29;3.63;;;1.52;;
31990;SDS011;18508;49.386;8.370;2024-02-15T14:10:58;6.28;;;2.08;;
31990;SDS011;18508;49.386;8.370;2024-02-15T14:13:26;4.10;;;1.63;;
31990;SDS011;18508;49.386;8.370;2024-02-15T14:15:57;4.90;;;2.13;;
31990;SDS011;18508;49.386;8.370;2024-02-15T14:18:26;6.20;;;2.00;;
31990;SDS011;18508;49.386;8.370;2024-02-15T14:20:59;5.63;;;1.90;;
31990;SDS011;18508;49.386;8.370;2024-02-15T14:23:28;6.03;;;1.80;;
31990;SDS011;18508;49.386;8.370;2024-02-15T14:25:57;5.55;;;1.88;;
31990;SDS011;18508;49.386;8.370;2024-02-15T14:28:29;8.35;;;2.05;;
31990;SDS011;18508;49.386;8.370;2024-02-15T14:30:59;3.95;;;2.13;;
31990;SDS011;18508;49.386;8.370;2024-02-15T14:33:45;6.63;;;1.88;;
31990;SDS011;18508;49.386;8.370;2024-02-15T14:36:19;4.13;;;1.45;;
31990;SDS011;18508;49.386;8.370;2024-02-15T14:38:48;2.72;;;1.27;;
31990;SDS011;18508;49.386;8.370;2024-02-15T14:41:23;5.38;;;1.42;;
31990;SDS011;18508;49.386;8.370;2024-02-15T14:43:56;5.43;;;1.48;;
31990;SDS011;18508;49.386;8.370;2024-02-15T14:46:27;4.30;;;1.88;;
31990;SDS011;18508;49.386;8.370;2024-02-15T14:48:56;3.42;;;1.40;;
31990;SDS011;18508;49.386;8.370;2024-02-15T14:51:28;3.25;;;1.40;;
31990;SDS011;18508;49.386;8.370;2024-02-15T14:53:58;6.47;;;1.50;;
31990;SDS011;18508;49.386;8.370;2024-02-15T14:56:29;3.97;;;1.13;;
31990;SDS011;18508;49.386;8.370;2024-02-15T14:59:04;5.68;;;1.30;;
31990;SDS011;18508;49.386;8.370;2024-02-15T15:01:33;3.75;;;1.02;;
31990;SDS011;18508;49.386;8.370;2024-02-15T15:04:04;5.20;;;1.70;;
31990;SDS011;18508;49.386;8.370;2024-02-15T15:06:36;5.72;;;1.42;;
31990;SDS011;18508;49.386;8.370;2024-02-15T15:09:23;4.45;;;1.50;;
31990;SDS011;18508;49.386;8.370;2024-02-15T15:12:10;3.55;;;1.60;;
31990;SDS011;18508;49.386;8.370;2024-02-15T15:14:56;5.13;;;1.67;;
31990;SDS011;18508;49.386;8.370;2024-02-15T15:17:27;5.75;;;1.45;;
31990;SDS011;18508;49.386;8.370;2024-02-15T15:19:56;2.22;;;1.42;;
31990;SDS011;18508;49.386;8.370;2024-02-15T15:22:27;3.75;;;1.50;;
31990;SDS011;18508;49.386;8.370;2024-02-15T15:24:56;3.10;;;1.50;;
31990;SDS011;18508;49.386;8.370;2024-02-15T15:27:28;6.40;;;2.45;;
31990;SDS011;18508;49.386;8.370;2024-02-15T15:29:56;6.82;;;2.15;;
31990;SDS011;18508;49.386;8.370;2024-02-15T15:32:27;6.38;;;2.10;;
31990;SDS011;18508;49.386;8.370;2024-02-15T15:34:56;4.20;;;2.35;;
31990;SDS011;18508;49.386;8.370;2024-02-15T15:37:30;7.75;;;3.30;;
31990;SDS011;18508;49.386;8.370;2024-02-15T15:39:59;5.32;;;2.53;;
31990;SDS011;18508;49.386;8.370;2024-02-15T15:42:30;6.13;;;2.45;;
31990;SDS011;18508;49.386;8.370;2024-02-15T15:44:59;6.00;;;2.17;;
31990;SDS011;18508;49.386;8.370;2024-02-15T15:47:28;3.58;;;2.03;;
31990;SDS011;18508;49.386;8.370;2024-02-15T15:50:00;7.50;;;2.58;;